This is the latest recevied weather packets stored in our database for station/object AE6BH. If no packets are shown the sender has not sent any weather packets the latest 10 day(s).
| Time | Temp. | Humidity | Pressure | Rain* | Wind** | Luminosity | Snow |
|---|---|---|---|---|---|---|---|
| 1778177812 | 23.33° C | 50% | 1016.2 hPa | 0 mm | - | 744 W/m² | - |
| 1778177509 | 23.89° C | 49% | 1016.3 hPa | 0 mm | - | 727 W/m² | - |
| 1778177205 | 23.33° C | 50% | 1016.4 hPa | 0 mm | - | 746 W/m² | - |
| 1778176902 | 23.33° C | 50% | 1016.6 hPa | 0 mm | - | 767 W/m² | - |
| 1778176598 | 25° C | 47% | 1016.4 hPa | 0 mm | - | 782 W/m² | - |
| 1778176295 | 22.78° C | 51% | 1016.4 hPa | 0 mm | - | 779 W/m² | - |
| 1778175992 | 22.78° C | 52% | 1016.6 hPa | 0 mm | - | 798 W/m² | - |
| 1778175691 | 22.22° C | 60% | 1016.5 hPa | 0 mm | - | 804 W/m² | - |
| 1778175387 | 22.22° C | 61% | 1016.5 hPa | 0 mm | - | 825 W/m² | - |
| 1778175084 | 21.67° C | 61% | 1016.6 hPa | 0 mm | - | 838 W/m² | - |
| 1778174780 | 21.67° C | 62% | 1016.9 hPa | 0 mm | - | 817 W/m² | - |
| 1778174478 | 21.67° C | 62% | 1016.8 hPa | 0 mm | - | 804 W/m² | - |
| 1778174173 | 21.67° C | 61% | 1016.7 hPa | 0 mm | - | 749 W/m² | - |
| 1778173870 | 21.11° C | 63% | 1016.6 hPa | 0 mm | - | 709 W/m² | - |
| 1778173567 | 20.56° C | 63% | 1016.9 hPa | 0 mm | - | 707 W/m² | - |
| 1778173264 | 20.56° C | 65% | 1017.2 hPa | 0 mm | - | 674 W/m² | - |
| 1778172959 | 20° C | 66% | 1016.8 hPa | 0 mm | - | 655 W/m² | - |
| 1778172656 | 20° C | 66% | 1016.9 hPa | 0 mm | - | 642 W/m² | - |
| 1778172352 | 20° C | 67% | 1017 hPa | 0 mm | - | 622 W/m² | - |
| 1778172049 | 19.44° C | 68% | 1016.8 hPa | 0 mm | - | 589 W/m² | - |
| 1778171747 | 20° C | 67% | 1016.9 hPa | 0 mm | - | 571 W/m² | - |
| 1778171445 | 18.89° C | 71% | 1017.2 hPa | 0 mm | - | 539 W/m² | - |
| 1778171144 | 18.33° C | 72% | 1017.1 hPa | 0 mm | - | 548 W/m² | - |
| 1778170842 | 18.89° C | 72% | 1017.1 hPa | 0 mm | - | 508 W/m² | - |
| 1778170538 | 18.89° C | 73% | 1017.2 hPa | 0 mm | - | 492 W/m² | - |
* Rain latest hour (hover to see other rain measurements)
** Current wind speed in m/s (hover to see current wind gust speed)